Time;durP1;ratioP1;P1;durP2;ratioP2;P2;SDS_P1;SDS_P2;PMS_P1;PMS_P2;Temp;Humidity;BMP_temperature;BMP_pressure;BME280_temperature;BME280_humidity;BME280_pressure;Samples;Min_cycle;Max_cycle;Signal;HPM_P1;HPM_P2
2022/05/18 00:01:10;;;;;;;1.67;0.80;;;;;;;;;;4405254;32;20061;-75
2022/05/18 00:03:40;;;;;;;0.73;0.70;;;;;;;;;;4392388;32;20081;-74
2022/05/18 00:06:07;;;;;;;1.60;1.00;;;;;;;;;;4380230;32;20066;-75
2022/05/18 00:08:37;;;;;;;1.40;0.70;;;;;;;;;;4392632;32;20100;-74
2022/05/18 00:11:15;;;;;;;1.23;0.50;;;;;;;;;;4419505;32;20079;-75
2022/05/18 00:13:43;;;;;;;1.90;0.85;;;;;;;;;;4405577;32;20073;-74
2022/05/18 00:16:10;;;;;;;2.00;0.90;;;;;;;;;;4419200;32;20084;-74
2022/05/18 00:18:37;;;;;;;0.93;0.60;;;;;;;;;;4419769;32;20161;-75
2022/05/18 00:21:05;;;;;;;2.60;1.30;;;;;;;;;;4419143;32;20083;-74
2022/05/18 00:23:32;;;;;;;3.25;0.90;;;;;;;;;;4405416;32;20104;-74
2022/05/18 00:25:58;;;;;;;2.50;0.95;;;;;;;;;;4392631;32;20077;-75
2022/05/18 00:28:25;;;;;;;1.00;0.73;;;;;;;;;;4405043;32;20433;-75
2022/05/18 00:30:52;;;;;;;1.58;0.77;;;;;;;;;;4404913;32;20095;-75
2022/05/18 00:33:19;;;;;;;1.37;0.90;;;;;;;;;;4391916;32;20452;-75
2022/05/18 00:35:46;;;;;;;1.45;0.80;;;;;;;;;;4379842;32;20073;-74
2022/05/18 00:38:12;;;;;;;0.95;0.68;;;;;;;;;;4418970;32;20088;-74
2022/05/18 00:40:41;;;;;;;2.08;1.02;;;;;;;;;;4418752;32;20073;-75
2022/05/18 00:43:19;;;;;;;1.17;1.02;;;;;;;;;;4392068;32;20156;-75
2022/05/18 00:45:46;;;;;;;2.15;0.90;;;;;;;;;;4381864;32;20077;-74
2022/05/18 00:48:13;;;;;;;1.40;0.75;;;;;;;;;;4382478;32;20081;-74
2022/05/18 00:50:40;;;;;;;1.48;1.02;;;;;;;;;;4408948;32;20152;-75
2022/05/18 00:53:13;;;;;;;1.55;0.80;;;;;;;;;;4382543;32;20082;-74
2022/05/18 00:55:44;;;;;;;2.40;0.57;;;;;;;;;;4395049;32;20152;-75
2022/05/18 00:58:16;;;;;;;2.03;1.05;;;;;;;;;;4382749;32;20095;-75
2022/05/18 01:00:43;;;;;;;1.05;0.88;;;;;;;;;;4395256;32;20068;-74
2022/05/18 01:03:23;;;;;;;1.25;0.77;;;;;;;;;;4394786;32;20081;-75
2022/05/18 01:05:58;;;;;;;1.48;0.80;;;;;;;;;;4382547;32;20084;-75
2022/05/18 01:08:46;;;;;;;1.20;0.82;;;;;;;;;;4382424;32;20085;-75
2022/05/18 01:11:13;;;;;;;1.08;0.80;;;;;;;;;;4369024;32;20077;-75
2022/05/18 01:13:40;;;;;;;1.02;0.85;;;;;;;;;;4394029;32;20535;-74
2022/05/18 01:16:07;;;;;;;0.65;0.62;;;;;;;;;;4382134;32;20083;-74
2022/05/18 01:18:35;;;;;;;1.05;0.65;;;;;;;;;;4394691;32;20077;-75
2022/05/18 01:21:01;;;;;;;1.70;0.52;;;;;;;;;;4382276;32;20080;-74
2022/05/18 01:23:52;;;;;;;1.00;0.60;;;;;;;;;;4394368;32;20085;-74
2022/05/18 01:26:24;;;;;;;1.10;0.60;;;;;;;;;;4394902;32;20089;-75
2022/05/18 01:29:01;;;;;;;0.90;0.73;;;;;;;;;;4393760;32;20077;-74
2022/05/18 01:31:51;;;;;;;1.62;1.05;;;;;;;;;;4394656;32;20088;-75
2022/05/18 01:34:21;;;;;;;1.10;0.88;;;;;;;;;;4394247;32;20066;-74
2022/05/18 01:36:49;;;;;;;1.60;1.02;;;;;;;;;;4393922;32;20097;-74
2022/05/18 01:39:53;;;;;;;0.82;0.80;;;;;;;;;;4407645;32;20454;-75
2022/05/18 01:42:41;;;;;;;2.03;0.75;;;;;;;;;;4407060;32;20084;-75
2022/05/18 01:45:08;;;;;;;1.37;0.95;;;;;;;;;;4381141;32;20081;-75
2022/05/18 01:47:36;;;;;;;0.95;0.80;;;;;;;;;;4381241;32;20077;-74
2022/05/18 01:50:05;;;;;;;3.58;1.20;;;;;;;;;;4393815;32;20092;-75
2022/05/18 01:52:35;;;;;;;3.10;0.95;;;;;;;;;;4393615;32;20133;-75
2022/05/18 01:55:02;;;;;;;1.50;0.93;;;;;;;;;;4393420;32;20081;-75
2022/05/18 01:57:28;;;;;;;1.67;1.27;;;;;;;;;;4367969;32;20112;-75
2022/05/18 01:59:55;;;;;;;2.17;1.00;;;;;;;;;;4381056;32;20508;-74
2022/05/18 02:02:22;;;;;;;1.90;1.10;;;;;;;;;;4393291;32;20073;-75
2022/05/18 02:04:49;;;;;;;1.15;1.00;;;;;;;;;;4407650;32;20164;-74
2022/05/18 02:07:16;;;;;;;2.05;0.77;;;;;;;;;;4408213;32;20066;-75
2022/05/18 02:09:43;;;;;;;3.30;1.00;;;;;;;;;;4395251;32;20149;-75
2022/05/18 02:12:12;;;;;;;4.03;1.15;;;;;;;;;;4409361;32;20152;-75
2022/05/18 02:14:38;;;;;;;2.72;1.30;;;;;;;;;;4395449;32;20093;-74
2022/05/18 02:17:05;;;;;;;3.08;1.12;;;;;;;;;;4395100;32;20546;-75
2022/05/18 02:19:32;;;;;;;1.52;0.90;;;;;;;;;;4395589;32;20095;-74
2022/05/18 02:21:59;;;;;;;4.00;2.00;;;;;;;;;;4407861;32;20081;-74
2022/05/18 02:24:26;;;;;;;2.83;1.45;;;;;;;;;;4393756;32;20437;-74
2022/05/18 02:26:52;;;;;;;1.42;0.73;;;;;;;;;;4394289;32;20524;-74
2022/05/18 02:29:20;;;;;;;1.20;1.08;;;;;;;;;;4393094;32;20144;-74
2022/05/18 02:31:46;;;;;;;3.47;1.02;;;;;;;;;;4380843;32;20058;-75
2022/05/18 02:34:14;;;;;;;1.23;0.85;;;;;;;;;;4407553;32;20173;-73
2022/05/18 02:36:42;;;;;;;1.58;0.93;;;;;;;;;;4407241;32;20097;-74
2022/05/18 02:39:09;;;;;;;4.00;1.10;;;;;;;;;;4393155;32;20531;-74
2022/05/18 02:41:35;;;;;;;1.48;0.82;;;;;;;;;;4392972;32;20161;-74
2022/05/18 02:44:02;;;;;;;1.55;0.90;;;;;;;;;;4380506;32;20089;-75
2022/05/18 02:46:29;;;;;;;0.75;0.60;;;;;;;;;;4407319;32;20077;-74
2022/05/18 02:48:56;;;;;;;1.77;0.85;;;;;;;;;;4392925;32;20069;-75
2022/05/18 02:51:23;;;;;;;1.20;0.60;;;;;;;;;;4380301;32;20512;-74
2022/05/18 02:53:49;;;;;;;1.65;1.00;;;;;;;;;;4406611;32;20079;-75
2022/05/18 02:56:26;;;;;;;0.77;0.77;;;;;;;;;;4368291;32;20081;-75
2022/05/18 02:58:54;;;;;;;2.60;0.73;;;;;;;;;;4393322;32;20069;-75
2022/05/18 03:01:24;;;;;;;0.80;0.60;;;;;;;;;;4393184;32;20070;-74
2022/05/18 03:03:51;;;;;;;0.90;0.80;;;;;;;;;;4380138;32;20085;-75
2022/05/18 03:06:19;;;;;;;1.05;0.80;;;;;;;;;;4379892;32;20436;-75
2022/05/18 03:08:46;;;;;;;1.02;0.75;;;;;;;;;;4406536;32;20085;-75
2022/05/18 03:11:13;;;;;;;3.28;1.40;;;;;;;;;;4379805;32;20626;-74
2022/05/18 03:13:40;;;;;;;4.68;1.50;;;;;;;;;;4392476;32;20161;-74
2022/05/18 03:16:07;;;;;;;2.50;1.62;;;;;;;;;;4380664;32;20081;-74
2022/05/18 03:18:34;;;;;;;3.42;1.90;;;;;;;;;;4392738;32;20101;-74
2022/05/18 03:23:46;;;;;;;2.53;1.20;;;;;;;;;;4394816;32;20163;-74
2022/05/18 03:26:15;;;;;;;1.55;1.25;;;;;;;;;;4392579;32;20089;-75
2022/05/18 03:28:44;;;;;;;3.22;0.77;;;;;;;;;;4406425;32;20104;-74
2022/05/18 03:31:11;;;;;;;3.87;1.45;;;;;;;;;;4367379;32;20534;-74
2022/05/18 03:33:38;;;;;;;1.58;1.15;;;;;;;;;;4379628;32;20076;-74
2022/05/18 03:36:07;;;;;;;4.20;0.80;;;;;;;;;;4367373;32;20152;-74
2022/05/18 03:38:34;;;;;;;1.98;1.25;;;;;;;;;;4392827;32;20086;-75
2022/05/18 03:41:01;;;;;;;1.40;0.82;;;;;;;;;;4392803;32;20173;-74
2022/05/18 03:43:28;;;;;;;1.48;0.98;;;;;;;;;;4406319;32;20144;-75
2022/05/18 03:45:55;;;;;;;1.83;1.10;;;;;;;;;;4406142;32;20077;-74
2022/05/18 03:48:22;;;;;;;1.00;0.90;;;;;;;;;;4406439;32;20512;-74
2022/05/18 03:50:50;;;;;;;1.08;0.73;;;;;;;;;;4392385;32;20152;-74
2022/05/18 03:53:17;;;;;;;5.70;1.10;;;;;;;;;;4392017;32;20065;-74
2022/05/18 03:55:44;;;;;;;2.97;1.52;;;;;;;;;;4406350;32;20102;-74
2022/05/18 03:58:12;;;;;;;3.35;1.10;;;;;;;;;;4392337;32;20071;-74
2022/05/18 04:00:40;;;;;;;2.90;1.40;;;;;;;;;;4392146;32;20085;-73
2022/05/18 04:05:51;;;;;;;1.37;1.00;;;;;;;;;;3834329;37;20436;-74
2022/05/18 04:08:18;;;;;;;1.20;1.00;;;;;;;;;;4404686;32;20671;-74
2022/05/18 04:10:45;;;;;;;1.37;0.90;;;;;;;;;;4390400;32;20583;-74
2022/05/18 04:13:13;;;;;;;2.90;1.02;;;;;;;;;;4390420;32;20084;-74
2022/05/18 04:15:40;;;;;;;3.17;1.15;;;;;;;;;;4390076;32;20141;-74
2022/05/18 04:18:07;;;;;;;2.92;1.27;;;;;;;;;;4390870;32;20077;-74
2022/05/18 04:20:34;;;;;;;2.83;1.50;;;;;;;;;;4377847;32;20081;-74
2022/05/18 04:23:01;;;;;;;1.90;1.20;;;;;;;;;;4390593;32;20160;-74
2022/05/18 04:25:29;;;;;;;2.45;1.30;;;;;;;;;;4390273;32;20105;-75
2022/05/18 04:27:55;;;;;;;2.00;0.95;;;;;;;;;;4404684;32;20089;-74
2022/05/18 04:30:24;;;;;;;1.65;1.10;;;;;;;;;;4404589;32;20212;-75
2022/05/18 04:32:52;;;;;;;2.05;0.68;;;;;;;;;;4378222;32;20179;-74
2022/05/18 04:35:22;;;;;;;1.12;0.77;;;;;;;;;;4391037;32;20503;-75
2022/05/18 04:37:49;;;;;;;1.67;1.20;;;;;;;;;;4391576;32;20165;-74
2022/05/18 04:40:16;;;;;;;1.17;0.55;;;;;;;;;;4392041;32;20065;-74
2022/05/18 04:42:42;;;;;;;2.22;0.90;;;;;;;;;;4391294;32;20104;-74
2022/05/18 04:45:12;;;;;;;0.65;0.65;;;;;;;;;;4390151;32;20073;-75
2022/05/18 04:47:38;;;;;;;2.35;0.65;;;;;;;;;;4377568;32;20647;-74
2022/05/18 04:50:06;;;;;;;1.05;0.62;;;;;;;;;;4403970;32;20073;-75
2022/05/18 04:52:33;;;;;;;1.08;0.80;;;;;;;;;;4389726;32;20504;-75
2022/05/18 04:54:59;;;;;;;3.00;1.20;;;;;;;;;;4389832;32;20149;-74
2022/05/18 04:57:26;;;;;;;1.73;0.95;;;;;;;;;;4377086;32;20092;-75
2022/05/18 04:59:53;;;;;;;4.10;0.98;;;;;;;;;;4403996;32;20576;-75
2022/05/18 05:02:19;;;;;;;3.22;0.98;;;;;;;;;;4378062;32;20180;-74
2022/05/18 05:04:46;;;;;;;0.95;0.80;;;;;;;;;;4403951;32;20166;-75
2022/05/18 05:07:13;;;;;;;1.17;0.90;;;;;;;;;;4390277;32;20164;-74
2022/05/18 05:09:39;;;;;;;1.95;0.60;;;;;;;;;;4377564;32;20153;-74
2022/05/18 05:12:07;;;;;;;0.88;0.70;;;;;;;;;;4403619;32;20161;-74
2022/05/18 05:14:38;;;;;;;2.25;1.05;;;;;;;;;;4389929;32;20077;-74
2022/05/18 05:17:05;;;;;;;3.50;1.15;;;;;;;;;;4367280;32;20158;-74
2022/05/18 05:19:32;;;;;;;0.85;0.82;;;;;;;;;;4379210;32;20494;-75
2022/05/18 05:21:58;;;;;;;2.75;0.98;;;;;;;;;;4354611;32;20596;-75
2022/05/18 05:24:25;;;;;;;3.22;1.35;;;;;;;;;;4379615;32;20066;-74
2022/05/18 05:26:52;;;;;;;2.67;1.33;;;;;;;;;;4393164;32;20086;-75
2022/05/18 05:29:20;;;;;;;1.58;1.02;;;;;;;;;;4379586;32;20082;-73
2022/05/18 05:31:47;;;;;;;1.90;0.98;;;;;;;;;;4379699;32;20154;-74
2022/05/18 05:34:14;;;;;;;3.45;1.55;;;;;;;;;;4379692;32;20581;-74
2022/05/18 05:36:41;;;;;;;15.80;2.58;;;;;;;;;;4379847;32;20089;-74
2022/05/18 05:39:08;;;;;;;5.55;1.40;;;;;;;;;;4379612;32;20158;-75
2022/05/18 05:41:34;;;;;;;4.15;1.25;;;;;;;;;;4368222;32;20456;-75
2022/05/18 05:44:01;;;;;;;1.27;0.90;;;;;;;;;;4367753;32;20083;-74
2022/05/18 05:46:27;;;;;;;5.68;1.00;;;;;;;;;;4366547;32;20531;-75
2022/05/18 05:48:55;;;;;;;1.98;0.82;;;;;;;;;;4366846;32;20166;-74
2022/05/18 05:51:23;;;;;;;4.07;0.90;;;;;;;;;;4392741;32;20085;-75
2022/05/18 05:53:51;;;;;;;1.40;0.82;;;;;;;;;;4367246;32;20077;-74
2022/05/18 05:56:18;;;;;;;1.37;0.93;;;;;;;;;;4366963;32;20077;-73
2022/05/18 05:58:47;;;;;;;3.75;2.08;;;;;;;;;;4379132;32;20084;-74
2022/05/18 06:01:15;;;;;;;4.35;1.60;;;;;;;;;;4379174;32;20087;-73
2022/05/18 06:03:42;;;;;;;1.20;1.08;;;;;;;;;;4353468;32;20867;-73
2022/05/18 06:06:10;;;;;;;3.25;1.20;;;;;;;;;;4366534;32;20521;-74
2022/05/18 06:08:37;;;;;;;5.68;1.50;;;;;;;;;;4379204;32;20145;-74
2022/05/18 06:11:04;;;;;;;2.85;1.37;;;;;;;;;;4378882;32;20239;-74
2022/05/18 06:13:31;;;;;;;1.98;1.02;;;;;;;;;;4366212;32;20166;-73
2022/05/18 06:15:58;;;;;;;3.45;1.30;;;;;;;;;;4378617;32;20082;-73
2022/05/18 06:18:25;;;;;;;4.25;1.65;;;;;;;;;;4378669;32;20575;-74
2022/05/18 06:20:51;;;;;;;4.93;1.23;;;;;;;;;;4366011;32;20101;-73
2022/05/18 06:23:18;;;;;;;3.72;0.93;;;;;;;;;;4378691;32;20158;-73
2022/05/18 06:25:46;;;;;;;1.52;1.00;;;;;;;;;;4378665;32;20104;-74
2022/05/18 06:28:13;;;;;;;1.20;1.05;;;;;;;;;;4378157;32;20077;-74
2022/05/18 06:30:41;;;;;;;2.22;1.17;;;;;;;;;;4366685;32;20067;-74
2022/05/18 06:33:07;;;;;;;2.33;1.20;;;;;;;;;;4366132;32;20157;-74
2022/05/18 06:35:34;;;;;;;2.87;1.35;;;;;;;;;;4366067;32;20093;-73
2022/05/18 06:38:08;;;;;;;1.58;1.10;;;;;;;;;;4354231;32;20214;-73
2022/05/18 06:43:26;;;;;;;1.90;1.00;;;;;;;;;;4367757;32;20154;-73
2022/05/18 06:45:53;;;;;;;1.00;0.90;;;;;;;;;;4365918;32;20089;-74
2022/05/18 06:48:19;;;;;;;1.23;1.00;;;;;;;;;;4365797;32;20158;-73
2022/05/18 06:50:46;;;;;;;1.35;0.80;;;;;;;;;;4377968;32;20246;-73
2022/05/18 06:53:13;;;;;;;1.92;1.17;;;;;;;;;;4353583;32;20152;-73
2022/05/18 06:55:39;;;;;;;1.15;0.98;;;;;;;;;;4378159;32;20538;-74
2022/05/18 06:58:06;;;;;;;1.35;1.15;;;;;;;;;;4377832;32;20081;-73
2022/05/18 07:00:33;;;;;;;1.98;1.12;;;;;;;;;;4353715;32;20094;-74
2022/05/18 07:02:59;;;;;;;2.78;1.10;;;;;;;;;;4392305;32;20085;-74
2022/05/18 07:05:27;;;;;;;2.40;1.00;;;;;;;;;;4377476;32;20183;-75
2022/05/18 07:07:53;;;;;;;2.65;0.90;;;;;;;;;;4392426;32;20073;-73
2022/05/18 07:10:20;;;;;;;1.10;1.00;;;;;;;;;;4377596;32;20073;-74
2022/05/18 07:12:47;;;;;;;5.75;1.75;;;;;;;;;;4378064;32;20154;-74
2022/05/18 07:15:13;;;;;;;1.45;1.02;;;;;;;;;;4364959;32;20583;-73
2022/05/18 07:17:41;;;;;;;1.60;1.10;;;;;;;;;;4377306;32;20497;-74
2022/05/18 07:20:08;;;;;;;4.37;1.10;;;;;;;;;;4352894;32;20085;-73
2022/05/18 07:22:35;;;;;;;1.58;1.15;;;;;;;;;;4365188;32;20086;-74
2022/05/18 07:25:02;;;;;;;2.95;1.45;;;;;;;;;;4377410;32;20074;-74
2022/05/18 07:27:28;;;;;;;1.30;0.98;;;;;;;;;;4364482;32;20569;-72
2022/05/18 07:29:55;;;;;;;1.58;1.30;;;;;;;;;;4377353;32;20085;-71
2022/05/18 07:32:21;;;;;;;1.10;1.00;;;;;;;;;;4377265;32;20166;-71
2022/05/18 07:34:48;;;;;;;2.80;1.08;;;;;;;;;;4391290;32;20486;-70
2022/05/18 07:37:18;;;;;;;2.03;1.25;;;;;;;;;;4377402;32;20099;-69
2022/05/18 07:39:45;;;;;;;2.00;1.27;;;;;;;;;;4377225;32;20081;-72
2022/05/18 07:42:12;;;;;;;3.42;1.25;;;;;;;;;;4391106;32;20073;-70
2022/05/18 07:44:40;;;;;;;4.53;1.70;;;;;;;;;;4365497;32;20078;-72
2022/05/18 07:47:08;;;;;;;5.47;1.02;;;;;;;;;;4377282;32;20502;-71
2022/05/18 07:49:39;;;;;;;3.05;1.30;;;;;;;;;;4377497;32;20570;-72
2022/05/18 07:52:07;;;;;;;1.75;0.98;;;;;;;;;;4365595;32;20084;-71
2022/05/18 07:54:34;;;;;;;0.73;0.70;;;;;;;;;;4364522;32;20078;-72
2022/05/18 07:57:01;;;;;;;0.88;0.88;;;;;;;;;;4352391;32;20082;-71
2022/05/18 07:59:28;;;;;;;2.25;1.12;;;;;;;;;;4364797;32;20070;-71
2022/05/18 08:01:54;;;;;;;2.67;0.90;;;;;;;;;;4365512;32;20077;-71
2022/05/18 08:04:21;;;;;;;1.37;1.00;;;;;;;;;;4364531;32;20104;-71
2022/05/18 08:06:48;;;;;;;4.87;1.10;;;;;;;;;;4377078;32;20076;-72
2022/05/18 08:09:15;;;;;;;3.53;1.27;;;;;;;;;;4377308;32;20089;-72
2022/05/18 08:17:13;;;;;;;1.30;0.98;;;;;;;;;;4390845;32;20591;-73
2022/05/18 08:19:39;;;;;;;0.55;0.55;;;;;;;;;;4376928;32;20161;-72
2022/05/18 08:22:06;;;;;;;1.00;0.93;;;;;;;;;;4364866;32;20074;-72
2022/05/18 08:24:33;;;;;;;1.15;1.05;;;;;;;;;;4377083;32;20073;-71
2022/05/18 08:26:59;;;;;;;1.98;0.90;;;;;;;;;;4377121;32;20085;-72
2022/05/18 08:29:26;;;;;;;0.80;0.57;;;;;;;;;;4376972;32;20105;-73
2022/05/18 08:31:52;;;;;;;3.70;0.82;;;;;;;;;;4377312;32;20088;-73
2022/05/18 08:34:19;;;;;;;1.92;1.02;;;;;;;;;;4377345;32;20520;-73
2022/05/18 08:36:46;;;;;;;2.10;1.20;;;;;;;;;;4366841;32;20500;-73
2022/05/18 08:39:12;;;;;;;1.30;1.20;;;;;;;;;;4391115;32;20093;-73
2022/05/18 08:41:45;;;;;;;0.85;0.85;;;;;;;;;;4364881;32;20112;-74
2022/05/18 08:44:19;;;;;;;1.05;0.82;;;;;;;;;;4377771;32;20153;-72
2022/05/18 08:46:52;;;;;;;2.33;0.90;;;;;;;;;;4393009;32;20082;-73
2022/05/18 08:49:32;;;;;;;3.80;1.12;;;;;;;;;;4365383;32;20088;-73
2022/05/18 08:52:08;;;;;;;1.30;0.77;;;;;;;;;;4380145;32;20437;-72
2022/05/18 08:55:00;;;;;;;2.05;1.00;;;;;;;;;;4395135;32;20158;-73
2022/05/18 08:57:29;;;;;;;1.98;0.70;;;;;;;;;;4380032;32;20077;-74
2022/05/18 08:59:58;;;;;;;0.68;0.68;;;;;;;;;;4366845;32;20092;-74
2022/05/18 09:02:27;;;;;;;0.75;0.62;;;;;;;;;;4379865;32;20086;-74
2022/05/18 09:04:58;;;;;;;1.42;0.80;;;;;;;;;;4377288;32;20216;-73
2022/05/18 09:07:31;;;;;;;0.90;0.70;;;;;;;;;;4364744;32;20081;-72
2022/05/18 09:12:41;;;;;;;2.00;1.08;;;;;;;;;;3857259;37;20497;-73
2022/05/18 09:15:09;;;;;;;0.95;0.80;;;;;;;;;;4405817;32;20093;-74
2022/05/18 09:17:47;;;;;;;0.82;0.80;;;;;;;;;;4418143;32;20169;-72
2022/05/18 09:20:21;;;;;;;2.90;0.95;;;;;;;;;;4418585;32;20084;-74
2022/05/18 09:23:17;;;;;;;0.45;0.45;;;;;;;;;;4418041;32;20081;-75
2022/05/18 09:25:53;;;;;;;1.20;1.08;;;;;;;;;;4418269;32;20157;-74
2022/05/18 09:28:28;;;;;;;1.77;0.90;;;;;;;;;;4419608;32;20161;-73
2022/05/18 09:31:02;;;;;;;2.50;1.02;;;;;;;;;;4405609;32;20089;-73
2022/05/18 09:34:02;;;;;;;0.62;0.62;;;;;;;;;;4405929;32;20085;-74
2022/05/18 09:36:36;;;;;;;1.90;0.80;;;;;;;;;;4418095;32;20082;-74
2022/05/18 09:39:04;;;;;;;2.30;1.00;;;;;;;;;;4420162;32;20515;-71
2022/05/18 09:41:45;;;;;;;3.60;0.90;;;;;;;;;;4392856;32;20083;-73
2022/05/18 09:44:17;;;;;;;2.92;1.73;;;;;;;;;;4406065;32;20176;-74
2022/05/18 09:46:45;;;;;;;1.33;1.10;;;;;;;;;;4410023;32;20178;-72
2022/05/18 09:49:42;;;;;;;3.72;1.30;;;;;;;;;;4377771;32;20073;-73
2022/05/18 09:52:10;;;;;;;2.62;1.10;;;;;;;;;;4390143;32;20084;-75
2022/05/18 09:54:38;;;;;;;1.75;1.12;;;;;;;;;;4376953;32;20069;-74
2022/05/18 09:57:16;;;;;;;1.73;1.02;;;;;;;;;;4390345;32;20101;-75
2022/05/18 10:00:05;;;;;;;8.00;2.85;;;;;;;;;;4403043;32;20221;-75
2022/05/18 10:08:19;;;;;;;13.07;5.12;;;;;;;;;;4414270;32;20077;-75
2022/05/18 10:10:46;;;;;;;12.32;5.18;;;;;;;;;;4404654;32;20585;-75
2022/05/18 10:13:15;;;;;;;5.85;3.00;;;;;;;;;;4417599;32;20088;-73
2022/05/18 10:15:47;;;;;;;7.72;2.60;;;;;;;;;;4413184;32;20092;-75
2022/05/18 10:18:23;;;;;;;6.20;2.95;;;;;;;;;;4389466;32;20074;-74
2022/05/18 10:21:13;;;;;;;9.63;3.60;;;;;;;;;;4389265;32;20522;-75
2022/05/18 10:23:48;;;;;;;7.00;2.90;;;;;;;;;;4393929;32;20516;-76
2022/05/18 10:26:28;;;;;;;5.47;2.92;;;;;;;;;;4366720;32;20523;-76
2022/05/18 10:28:56;;;;;;;2.42;1.60;;;;;;;;;;4380124;32;20093;-73
2022/05/18 10:34:14;;;;;;;4.97;1.80;;;;;;;;;;3857032;37;20070;-75
2022/05/18 10:36:51;;;;;;;1.85;1.58;;;;;;;;;;4406273;32;20083;-77
2022/05/18 10:39:28;;;;;;;;;;;;;;;;;;4390841;32;20065;-73
2022/05/18 10:41:55;;;;;;;2.35;0.90;;;;;;;;;;4408293;32;20053;-76
2022/05/18 10:44:23;;;;;;;1.95;1.17;;;;;;;;;;4384130;32;20479;-74
2022/05/18 10:46:51;;;;;;;0.80;0.80;;;;;;;;;;4398192;32;20062;-74
2022/05/18 10:49:29;;;;;;;0.73;0.52;;;;;;;;;;4397057;32;20061;-77
2022/05/18 10:52:13;;;;;;;1.17;0.50;;;;;;;;;;4409154;32;20097;-75
2022/05/18 10:54:50;;;;;;;1.35;0.60;;;;;;;;;;4409234;32;20153;-75
2022/05/18 10:57:19;;;;;;;2.08;0.62;;;;;;;;;;4409478;32;20077;-76
2022/05/18 11:00:08;;;;;;;1.30;0.88;;;;;;;;;;4398226;32;20142;-73
2022/05/18 11:02:55;;;;;;;0.60;0.60;;;;;;;;;;4410140;32;20157;-75
2022/05/18 11:05:36;;;;;;;1.27;0.50;;;;;;;;;;4409773;32;20177;-73
2022/05/18 11:08:06;;;;;;;0.60;0.52;;;;;;;;;;4407654;32;20081;-75
2022/05/18 11:11:17;;;;;;;0.50;0.50;;;;;;;;;;4385908;32;20480;-76
2022/05/18 11:14:25;;;;;;;0.80;0.70;;;;;;;;;;4316746;33;20090;-74
2022/05/18 11:17:04;;;;;;;3.40;1.30;;;;;;;;;;4297631;33;20064;-76
2022/05/18 11:19:36;;;;;;;1.50;1.10;;;;;;;;;;4387064;32;20116;-77
2022/05/18 11:22:13;;;;;;;2.10;1.20;;;;;;;;;;4404065;32;20062;-75
2022/05/18 11:25:03;;;;;;;1.12;1.02;;;;;;;;;;4402791;32;20312;-74
2022/05/18 11:27:50;;;;;;;1.25;1.15;;;;;;;;;;4402457;32;20089;-76
2022/05/18 11:30:41;;;;;;;0.60;0.60;;;;;;;;;;4387855;32;20074;-78
2022/05/18 11:33:27;;;;;;;1.40;1.20;;;;;;;;;;4390249;32;20069;-72
2022/05/18 11:36:17;;;;;;;;;;;;;;;;;;4394562;32;20134;-73
2022/05/18 11:39:10;;;;;;;1.45;1.00;;;;;;;;;;4384060;32;19976;-73
2022/05/18 11:41:41;;;;;;;1.23;1.12;;;;;;;;;;4381269;32;20570;-73
2022/05/18 11:44:11;;;;;;;1.55;0.93;;;;;;;;;;4388970;32;20073;-73
2022/05/18 11:46:50;;;;;;;1.20;1.10;;;;;;;;;;4393799;32;20159;-73
2022/05/18 11:49:28;;;;;;;0.90;0.90;;;;;;;;;;4376014;32;20541;-71
2022/05/18 11:52:21;;;;;;;1.58;1.20;;;;;;;;;;4376307;32;20190;-71
2022/05/18 11:55:00;;;;;;;0.98;0.93;;;;;;;;;;4374179;32;20149;-73
2022/05/18 11:57:45;;;;;;;1.25;1.15;;;;;;;;;;4374376;32;20104;-71
2022/05/18 12:03:15;;;;;;;3.87;1.98;;;;;;;;;;4375807;32;20175;-72
2022/05/18 12:05:51;;;;;;;2.78;1.70;;;;;;;;;;4374472;32;20183;-73
2022/05/18 12:08:57;;;;;;;3.92;2.03;;;;;;;;;;4362988;32;20626;-73
2022/05/18 12:11:40;;;;;;;2.72;1.52;;;;;;;;;;4377658;32;20464;-74
2022/05/18 12:14:36;;;;;;;2.35;1.40;;;;;;;;;;4376003;32;20066;-72
2022/05/18 12:17:11;;;;;;;1.25;1.15;;;;;;;;;;4323126;32;20601;-73
2022/05/18 12:20:06;;;;;;;2.17;1.40;;;;;;;;;;4378301;32;20159;-72
2022/05/18 12:22:45;;;;;;;2.25;1.45;;;;;;;;;;4377930;32;20082;-73
2022/05/18 12:25:14;;;;;;;1.05;0.95;;;;;;;;;;4376671;32;20594;-73
2022/05/18 12:27:42;;;;;;;2.37;1.08;;;;;;;;;;4364176;32;20450;-73
2022/05/18 12:30:11;;;;;;;2.60;1.17;;;;;;;;;;4376462;32;20074;-72
2022/05/18 12:32:38;;;;;;;0.98;0.85;;;;;;;;;;4375979;32;20539;-72
2022/05/18 12:35:18;;;;;;;1.55;1.23;;;;;;;;;;4376960;32;20153;-72
2022/05/18 12:37:51;;;;;;;1.67;1.20;;;;;;;;;;4376265;32;20154;-76
2022/05/18 12:40:46;;;;;;;1.83;1.45;;;;;;;;;;4375909;32;20155;-72
2022/05/18 12:43:27;;;;;;;3.15;1.20;;;;;;;;;;4376390;32;20070;-72
2022/05/18 12:46:16;;;;;;;1.65;1.33;;;;;;;;;;4377275;32;20080;-72
2022/05/18 12:48:49;;;;;;;5.40;1.60;;;;;;;;;;4363252;32;20444;-73
2022/05/18 12:51:26;;;;;;;5.60;2.17;;;;;;;;;;4363970;32;20078;-73
2022/05/18 12:53:56;;;;;;;11.47;3.53;;;;;;;;;;4377377;32;20509;-73
2022/05/18 12:56:27;;;;;;;7.55;3.08;;;;;;;;;;4375094;32;20170;-72
2022/05/18 12:58:57;;;;;;;5.50;2.55;;;;;;;;;;4376607;32;20440;-72
2022/05/18 13:01:28;;;;;;;9.13;4.25;;;;;;;;;;4375911;32;20093;-73
2022/05/18 13:03:58;;;;;;;5.45;3.00;;;;;;;;;;4364431;32;20070;-73
2022/05/18 13:06:50;;;;;;;4.65;2.05;;;;;;;;;;4376796;32;20497;-73
2022/05/18 13:09:25;;;;;;;4.85;2.30;;;;;;;;;;4376776;32;20093;-74
2022/05/18 13:12:23;;;;;;;5.47;3.00;;;;;;;;;;4363526;32;20094;-73
2022/05/18 13:15:07;;;;;;;5.75;2.67;;;;;;;;;;4377051;32;20171;-73
2022/05/18 13:17:59;;;;;;;5.15;2.30;;;;;;;;;;4375962;32;20106;-73
2022/05/18 13:20:25;;;;;;;6.37;2.00;;;;;;;;;;4351001;32;20096;-72
2022/05/18 13:23:05;;;;;;;4.65;2.20;;;;;;;;;;4377259;32;20093;-71
2022/05/18 13:25:37;;;;;;;2.15;1.20;;;;;;;;;;4375291;32;20078;-71
2022/05/18 13:28:07;;;;;;;3.35;1.62;;;;;;;;;;4375781;32;20146;-73
2022/05/18 13:30:38;;;;;;;2.25;1.27;;;;;;;;;;4351279;32;20436;-71
2022/05/18 13:33:06;;;;;;;5.35;2.00;;;;;;;;;;4376040;32;20105;-77
2022/05/18 13:35:33;;;;;;;2.62;1.50;;;;;;;;;;4375530;32;20074;-75
2022/05/18 13:38:12;;;;;;;3.55;1.95;;;;;;;;;;4375214;32;20515;-73
2022/05/18 13:40:45;;;;;;;5.22;2.50;;;;;;;;;;4375964;32;20090;-73
2022/05/18 13:43:17;;;;;;;6.05;2.30;;;;;;;;;;4375607;32;20121;-74
2022/05/18 13:45:51;;;;;;;4.12;2.20;;;;;;;;;;4350691;32;20078;-74
2022/05/18 13:48:18;;;;;;;5.05;2.58;;;;;;;;;;4375142;32;20086;-72
2022/05/18 13:50:58;;;;;;;2.75;1.62;;;;;;;;;;4363159;32;20085;-73
2022/05/18 13:53:33;;;;;;;1.40;1.10;;;;;;;;;;4375167;32;20178;-74
2022/05/18 13:56:33;;;;;;;2.12;1.25;;;;;;;;;;4375532;32;20062;-73
2022/05/18 13:59:10;;;;;;;1.62;1.00;;;;;;;;;;4363729;32;20171;-73
2022/05/18 14:01:42;;;;;;;;;;;;;;;;;;4377040;32;20499;-74
2022/05/18 14:04:14;;;;;;;3.75;1.90;;;;;;;;;;4375044;32;19969;-74
2022/05/18 14:06:41;;;;;;;2.87;1.60;;;;;;;;;;4374738;32;20176;-77
2022/05/18 14:09:09;;;;;;;12.18;5.35;;;;;;;;;;4362300;32;20078;-76
2022/05/18 14:11:36;;;;;;;14.10;6.30;;;;;;;;;;4374996;32;20081;-73
2022/05/18 14:14:03;;;;;;;11.40;4.22;;;;;;;;;;4376163;32;20162;-76
2022/05/18 14:17:01;;;;;;;5.35;2.15;;;;;;;;;;4376678;32;20093;-78
2022/05/18 14:19:34;;;;;;;3.70;2.20;;;;;;;;;;4360620;32;20082;-78
2022/05/18 14:22:02;;;;;;;4.80;2.47;;;;;;;;;;4362787;32;20097;-76
2022/05/18 14:24:43;;;;;;;5.03;2.65;;;;;;;;;;4375326;32;20069;-74
2022/05/18 14:27:29;;;;;;;9.60;3.10;;;;;;;;;;4363022;32;20088;-76
2022/05/18 14:29:59;;;;;;;5.90;2.45;;;;;;;;;;4363606;32;20166;-76
2022/05/18 14:32:30;;;;;;;5.20;2.12;;;;;;;;;;4375096;32;20146;-74
2022/05/18 14:35:00;;;;;;;3.35;1.67;;;;;;;;;;4375376;32;20089;-75
2022/05/18 14:37:28;;;;;;;5.45;1.80;;;;;;;;;;4375735;32;20082;-75
2022/05/18 14:39:56;;;;;;;4.53;1.95;;;;;;;;;;4377845;32;20124;-77
2022/05/18 14:42:27;;;;;;;2.17;1.48;;;;;;;;;;4378567;32;20096;-77
2022/05/18 14:45:05;;;;;;;2.25;1.55;;;;;;;;;;4377954;32;20087;-78
2022/05/18 14:47:34;;;;;;;2.20;1.23;;;;;;;;;;4363525;32;20066;-77
2022/05/18 14:50:28;;;;;;;2.78;1.73;;;;;;;;;;4361970;32;20089;-75
2022/05/18 14:53:04;;;;;;;1.80;1.52;;;;;;;;;;4362420;32;20153;-74
2022/05/18 14:55:49;;;;;;;2.05;1.70;;;;;;;;;;4374318;32;20093;-77
2022/05/18 14:58:19;;;;;;;1.87;1.45;;;;;;;;;;4374199;32;20090;-76
2022/05/18 15:00:50;;;;;;;3.42;1.77;;;;;;;;;;4375990;32;20243;-73
2022/05/18 15:03:38;;;;;;;2.85;1.85;;;;;;;;;;4362721;32;20087;-77
2022/05/18 15:06:08;;;;;;;3.37;1.95;;;;;;;;;;4375439;32;20460;-74
2022/05/18 15:08:39;;;;;;;2.55;1.77;;;;;;;;;;4362191;32;20090;-78
2022/05/18 15:11:13;;;;;;;3.37;2.05;;;;;;;;;;4376262;32;20266;-79
2022/05/18 15:13:48;;;;;;;2.90;1.85;;;;;;;;;;4362604;32;20062;-78
2022/05/18 15:16:15;;;;;;;2.20;1.93;;;;;;;;;;4375375;32;20238;-78
2022/05/18 15:18:44;;;;;;;2.65;1.95;;;;;;;;;;4361844;32;20090;-73
2022/05/18 15:21:29;;;;;;;3.72;2.33;;;;;;;;;;4377541;32;20077;-74
2022/05/18 15:24:06;;;;;;;2.92;1.92;;;;;;;;;;4377307;32;20074;-75
2022/05/18 15:26:36;;;;;;;;;;;;;;;;;;4378717;32;20175;-73
2022/05/18 15:29:10;;;;;;;2.47;1.90;;;;;;;;;;4364257;32;19972;-73
2022/05/18 15:31:40;;;;;;;2.80;1.87;;;;;;;;;;4364455;32;20077;-74
2022/05/18 15:34:19;;;;;;;5.05;2.55;;;;;;;;;;4376812;32;20437;-73
2022/05/18 15:36:46;;;;;;;3.65;2.30;;;;;;;;;;4376806;32;20165;-72
2022/05/18 15:39:14;;;;;;;4.55;2.67;;;;;;;;;;4376986;32;20113;-73